Main page
METAR-TAF:

METAR-TAF

Airports :

Sharjah, United Arab Emirates

Sharjah International Airport

latitude: 25-20N, longitude: 055-31E, elevation: 35 m

Current weather observation

The report was made 1 hour and 14 minutes ago, at 16:00 UTC
Wind 4 kt from the Northwest
Temperature 36°C
Humidity 47%
Pressure 999 hPa
Visibility 10 km or more
no clouds below 1500 m and no cumulonimbus

METAR: OMSJ 231600Z 31004KT CAVOK 36/23 Q0999

Time: 21:14 (17:14 UTC)

Forecast

The report was made 6 hours and 14 minutes ago, at 11:00 UTC
Forecast valid from 23 at 12 UTC to 24 at 18 UTC
Wind 14 kt from the Northwest
Visibility 10 km or more
no clouds below 1500 m and no cumulonimbus
Becoming
from 23 at 15 UTC to 23 at 17 UTC
Wind 5 kt from the South
Becoming
from 24 at 07 UTC to 24 at 09 UTC
Wind 13 kt from the Northwest
Becoming
from 24 at 15 UTC to 24 at 17 UTC
Wind 4 kt from the East/Southeast

TAF: OMSJ 231100Z 2312/2418 31014KT CAVOK BECMG 2315/2317 18005KT BECMG 2407/2409 32013KT BECMG 2415/2417 12004KT

Weather observations and forecasts of more than 4000 airports (METAR and TAF reports).

The available stations are represented by yellow and red dots on the map.

Hover mouse over dot to see the name of the station.

Then click to see weather observations and forecasts.

To change the map : click on the green buttons with a black cross to zoom in, on the green button with a dash to zoom out, or on the green arrows for adjacent maps.


METAR-TAF: